Sy Linde — PD7793 — position and weather

sailwx.info

Track history (hours):
 
Tides and Currents Weather Stations Pressure Air Temp Water Temp Dewpoint Dewpoint Depression Visibility Wind Speed Wind Dir Waves Ship Positions

Sy Linde

Last reported at 2017-Oct-18 14:00 UTC. Time now 2017-Nov-17 20:53 UTC.
Position N 36°53' W 008°37'.
Warning: this ship's position is 30 days out of date.

Length 12 m; draft 2.4 m.

Type: Sailing vessel. MMSI: 244070549.

Date/timePositionNaut miles runAvg speedWind from/ knotsBaromVisibWave heightAir tempDewpointWater temp
2017-Oct-18 14:00N 36°53' W 008°37'3 6.1
2017-Oct-18 13:30N 36°57' W 008°38'3 6.2
2017-Oct-18 13:00N 36°60' W 008°37'3 5.6
2017-Oct-18 12:30N 37°02' W 008°37'3 5.3
2017-Oct-18 12:00N 37°05' W 008°37'2 3.8
2017-Oct-18 11:30N 37°07' W 008°37'1 2.3
2017-Oct-18 11:00N 37°08' W 008°36'  
2017-Oct-10 09:32N 37°08' W 008°36'0 0.0
2017-Oct-10 08:33N 37°08' W 008°36'0 0.0
2017-Oct-10 08:27N 37°08' W 008°36'0 0.0
2017-Oct-10 07:47N 37°08' W 008°36'0 0.0
2017-Oct-10 07:19N 37°08' W 008°36'0 0.0
2017-Oct-10 06:57N 37°08' W 008°36'0 0.0
2017-Oct-10 06:20N 37°08' W 008°36'0 0.0
2017-Oct-10 05:59N 37°08' W 008°36'0 0.0
2017-Oct-10 05:28N 37°08' W 008°36'0 0.0
2017-Oct-10 04:00N 37°08' W 008°36'0 0.0
2017-Oct-10 03:17N 37°08' W 008°36'0 0.0
2017-Oct-10 03:00N 37°08' W 008°36'0 0.0
2017-Oct-10 02:27N 37°08' W 008°36'0 0.0
2017-Oct-10 01:37N 37°08' W 008°36'0 0.0
2017-Oct-10 01:27N 37°08' W 008°36'0 0.0
2017-Oct-10 01:00N 37°08' W 008°36'0 0.0
2017-Oct-09 23:17N 37°08' W 008°36'0 0.0
2017-Oct-09 22:46N 37°08' W 008°36'0 0.0
2017-Oct-09 22:18N 37°08' W 008°36'0 0.0
2017-Oct-09 21:44N 37°08' W 008°36'0 0.0
2017-Oct-09 21:28N 37°08' W 008°36'0 0.0
2017-Oct-09 21:00N 37°08' W 008°36'0 0.0
2017-Oct-09 20:29N 37°08' W 008°36'0 0.0
2017-Oct-09 19:59N 37°08' W 008°36'0 0.0
2017-Oct-09 19:23N 37°08' W 008°36'0 0.0
2017-Oct-09 18:57N 37°08' W 008°36'0 0.0
2017-Oct-09 18:26N 37°08' W 008°36'0 0.0
2017-Oct-09 18:00N 37°08' W 008°36'0 0.0
2017-Oct-09 17:30N 37°08' W 008°36'0 0.0
2017-Oct-09 16:55N 37°08' W 008°36'0 0.0
2017-Oct-09 16:29N 37°08' W 008°36'0 0.0
2017-Oct-09 15:44N 37°08' W 008°36'0 0.0
2017-Oct-09 15:26N 37°08' W 008°36'0 0.0
2017-Oct-09 14:58N 37°08' W 008°36'0 0.0
2017-Oct-09 14:29N 37°08' W 008°36'0 0.0
2017-Oct-09 12:56N 37°08' W 008°36'0 0.0
2017-Oct-09 11:45N 37°08' W 008°36'0 0.0
2017-Oct-09 11:18N 37°08' W 008°36'0 0.0
2017-Oct-09 10:54N 37°08' W 008°36'0 0.0
2017-Oct-09 10:24N 37°08' W 008°36'0 0.0
2017-Oct-09 10:00N 37°08' W 008°36'0 0.0
2017-Oct-09 09:30N 37°08' W 008°36'0 0.0
2017-Oct-09 09:00N 37°08' W 008°36'0 0.0
2017-Oct-09 08:27N 37°08' W 008°36'0 0.0
2017-Oct-09 07:59N 37°08' W 008°36'0 0.0
2017-Oct-09 07:30N 37°08' W 008°36'0 0.0
2017-Oct-09 06:59N 37°08' W 008°36'0 0.0
2017-Oct-09 06:29N 37°08' W 008°36'0 0.0
2017-Oct-09 05:59N 37°08' W 008°36'0 0.0
2017-Oct-09 05:26N 37°08' W 008°36'0 0.0
2017-Oct-09 04:59N 37°08' W 008°36'0 0.0
2017-Oct-09 04:26N 37°08' W 008°36'0 0.0
2017-Oct-09 03:59N 37°08' W 008°36'0 0.0
2017-Oct-09 03:23N 37°08' W 008°36'0 0.0
2017-Oct-09 02:59N 37°08' W 008°36'0 0.0
2017-Oct-09 02:29N 37°08' W 008°36'0 0.0
2017-Oct-09 01:56N 37°08' W 008°36'0 0.0
2017-Oct-09 01:29N 37°08' W 008°36'0 0.0
2017-Oct-09 00:59N 37°08' W 008°36'0 0.0
2017-Oct-09 00:20N 37°08' W 008°36'0 0.0
2017-Oct-08 23:53N 37°08' W 008°36'0 0.0
2017-Oct-08 23:26N 37°08' W 008°36'0 0.0
2017-Oct-08 22:59N 37°08' W 008°36'0 0.0
2017-Oct-08 22:26N 37°08' W 008°36'0 0.0
2017-Oct-08 21:59N 37°08' W 008°36'0 0.0
2017-Oct-08 21:11N 37°08' W 008°36'0 0.0
2017-Oct-08 21:00N 37°08' W 008°36'  
Track history (hours):
 
Tides and Currents Weather Stations Pressure Air Temp Water Temp Dewpoint Dewpoint Depression Visibility Wind Speed Wind Dir Waves Ship Positions

Sy Linde

Last reported at 2017-Oct-18 14:00 UTC. Time now 2017-Nov-17 20:53 UTC.
Position N 36°53' W 008°37'.
Warning: this ship's position is 30 days out of date.

Length 12 m; draft 2.4 m.

Type: Sailing vessel. MMSI: 244070549.

Date/timePositionNaut miles runAvg speedWind from/ knotsBaromVisibWave heightAir tempDewpointWater temp
2017-Oct-18 14:00N 36°53' W 008°37'3 6.1
2017-Oct-18 13:30N 36°57' W 008°38'3 6.2
2017-Oct-18 13:00N 36°60' W 008°37'3 5.6
2017-Oct-18 12:30N 37°02' W 008°37'3 5.3
2017-Oct-18 12:00N 37°05' W 008°37'2 3.8
2017-Oct-18 11:30N 37°07' W 008°37'1 2.3
2017-Oct-18 11:00N 37°08' W 008°36'  
2017-Oct-10 09:32N 37°08' W 008°36'0 0.0
2017-Oct-10 08:33N 37°08' W 008°36'0 0.0
2017-Oct-10 08:27N 37°08' W 008°36'0 0.0
2017-Oct-10 07:47N 37°08' W 008°36'0 0.0
2017-Oct-10 07:19N 37°08' W 008°36'0 0.0
2017-Oct-10 06:57N 37°08' W 008°36'0 0.0
2017-Oct-10 06:20N 37°08' W 008°36'0 0.0
2017-Oct-10 05:59N 37°08' W 008°36'0 0.0
2017-Oct-10 05:28N 37°08' W 008°36'0 0.0
2017-Oct-10 04:00N 37°08' W 008°36'0 0.0
2017-Oct-10 03:17N 37°08' W 008°36'0 0.0
2017-Oct-10 03:00N 37°08' W 008°36'0 0.0
2017-Oct-10 02:27N 37°08' W 008°36'0 0.0
2017-Oct-10 01:37N 37°08' W 008°36'0 0.0
2017-Oct-10 01:27N 37°08' W 008°36'0 0.0
2017-Oct-10 01:00N 37°08' W 008°36'0 0.0
2017-Oct-09 23:17N 37°08' W 008°36'0 0.0
2017-Oct-09 22:46N 37°08' W 008°36'0 0.0
2017-Oct-09 22:18N 37°08' W 008°36'0 0.0
2017-Oct-09 21:44N 37°08' W 008°36'0 0.0
2017-Oct-09 21:28N 37°08' W 008°36'0 0.0
2017-Oct-09 21:00N 37°08' W 008°36'0 0.0
2017-Oct-09 20:29N 37°08' W 008°36'0 0.0
2017-Oct-09 19:59N 37°08' W 008°36'0 0.0
2017-Oct-09 19:23N 37°08' W 008°36'0 0.0
2017-Oct-09 18:57N 37°08' W 008°36'0 0.0
2017-Oct-09 18:26N 37°08' W 008°36'0 0.0
2017-Oct-09 18:00N 37°08' W 008°36'0 0.0
2017-Oct-09 17:30N 37°08' W 008°36'0 0.0
2017-Oct-09 16:55N 37°08' W 008°36'0 0.0
2017-Oct-09 16:29N 37°08' W 008°36'0 0.0
2017-Oct-09 15:44N 37°08' W 008°36'0 0.0
2017-Oct-09 15:26N 37°08' W 008°36'0 0.0
2017-Oct-09 14:58N 37°08' W 008°36'0 0.0
2017-Oct-09 14:29N 37°08' W 008°36'0 0.0
2017-Oct-09 12:56N 37°08' W 008°36'0 0.0
2017-Oct-09 11:45N 37°08' W 008°36'0 0.0
2017-Oct-09 11:18N 37°08' W 008°36'0 0.0
2017-Oct-09 10:54N 37°08' W 008°36'0 0.0
2017-Oct-09 10:24N 37°08' W 008°36'0 0.0
2017-Oct-09 10:00N 37°08' W 008°36'0 0.0
2017-Oct-09 09:30N 37°08' W 008°36'0 0.0
2017-Oct-09 09:00N 37°08' W 008°36'0 0.0
2017-Oct-09 08:27N 37°08' W 008°36'0 0.0
2017-Oct-09 07:59N 37°08' W 008°36'0 0.0
2017-Oct-09 07:30N 37°08' W 008°36'0 0.0
2017-Oct-09 06:59N 37°08' W 008°36'0 0.0
2017-Oct-09 06:29N 37°08' W 008°36'0 0.0
2017-Oct-09 05:59N 37°08' W 008°36'0 0.0
2017-Oct-09 05:26N 37°08' W 008°36'0 0.0
2017-Oct-09 04:59N 37°08' W 008°36'0 0.0
2017-Oct-09 04:26N 37°08' W 008°36'0 0.0
2017-Oct-09 03:59N 37°08' W 008°36'0 0.0
2017-Oct-09 03:23N 37°08' W 008°36'0 0.0
2017-Oct-09 02:59N 37°08' W 008°36'0 0.0
2017-Oct-09 02:29N 37°08' W 008°36'0 0.0
2017-Oct-09 01:56N 37°08' W 008°36'0 0.0
2017-Oct-09 01:29N 37°08' W 008°36'0 0.0
2017-Oct-09 00:59N 37°08' W 008°36'0 0.0
2017-Oct-09 00:20N 37°08' W 008°36'0 0.0
2017-Oct-08 23:53N 37°08' W 008°36'0 0.0
2017-Oct-08 23:26N 37°08' W 008°36'0 0.0
2017-Oct-08 22:59N 37°08' W 008°36'0 0.0
2017-Oct-08 22:26N 37°08' W 008°36'0 0.0
2017-Oct-08 21:59N 37°08' W 008°36'0 0.0
2017-Oct-08 21:11N 37°08' W 008°36'0 0.0
2017-Oct-08 21:00N 37°08' W 008°36'  

Dump ship's entire track history